Resolute — WTW2234 — position and weather

sailwx.info

Track history (hours):
 
Tides and Currents Weather Stations Pressure Air Temp Water Temp Dewpoint Dewpoint Depression Visibility Wind Speed Wind Dir Waves Ship Positions

Resolute

Owner: Providence Steamboat Co., PROVIDENCE, RI. More information available from US FCC via Universal Licensing System and Coast Guard Vessel Documentation Center.

Last reported at 2014-Oct-23 00:33 UTC. Time now 2014-Oct-23 01:33 UTC.
Position N 40°38' W 074°10'.

Length 30 m; draft 4 m.

Type: Tug. MMSI: 367091630.

Date/timePositionNaut miles runAvg speedWind from/ knotsBaromVisibWave heightAir tempDewpointWater temp
2014-Oct-23 00:33N 40°38' W 074°10'0 0.0
2014-Oct-22 23:33N 40°38' W 074°10'0 0.0
2014-Oct-22 22:33N 40°38' W 074°10'2 1.7
2014-Oct-22 21:33N 40°38' W 074°12'2 2.4
2014-Oct-22 20:33N 40°39' W 074°09'5 4.9
2014-Oct-22 19:34N 40°40' W 074°03'2 2.2
2014-Oct-22 18:34N 40°38' W 074°04'1 0.6
2014-Oct-22 17:34N 40°39' W 074°03'1 1.5
2014-Oct-22 16:34N 40°39' W 074°05'4 3.7
2014-Oct-22 15:34N 40°38' W 074°10'5 4.9
2014-Oct-22 14:33N 40°38' W 074°03'5 4.8
2014-Oct-22 13:34N 40°38' W 074°10'4 4.3
2014-Oct-22 12:34N 40°40' W 074°04'0 0.4
2014-Oct-22 11:34N 40°40' W 074°04'1 1.2
2014-Oct-22 10:33N 40°39' W 074°05'0 0.1
2014-Oct-22 09:34N 40°39' W 074°05'2 2.3
2014-Oct-22 08:34N 40°40' W 074°03'5 4.3
2014-Oct-22 07:29N 40°40' W 074°09'0 0.0
2014-Oct-22 06:34N 40°40' W 074°09'0 0.0
2014-Oct-22 05:25N 40°40' W 074°09'0 0.0
2014-Oct-22 04:30N 40°40' W 074°09'1 1.4
2014-Oct-22 03:34N 40°38' W 074°10'0 0.0
2014-Oct-22 02:34N 40°38' W 074°10'0 0.0
2014-Oct-22 01:34N 40°38' W 074°10'3 0.3
2014-Oct-21 16:23N 40°36' W 074°12'3 3.6
2014-Oct-21 15:34N 40°38' W 074°10'0 0.0
2014-Oct-21 14:32N 40°38' W 074°10'0 0.0
2014-Oct-21 13:34N 40°38' W 074°10'2 1.7
2014-Oct-21 12:34N 40°40' W 074°08'1 0.8
2014-Oct-21 11:34N 40°41' W 074°09'2 2.4
2014-Oct-21 10:33N 40°38' W 074°10'0 0.0
2014-Oct-21 09:34N 40°38' W 074°10'1 1.1
2014-Oct-21 08:33N 40°39' W 074°08'2 1.8
2014-Oct-21 07:34N 40°40' W 074°08'0 0.1
2014-Oct-21 06:33N 40°40' W 074°08'1 0.6
2014-Oct-21 05:33N 40°40' W 074°08'2 1.7
2014-Oct-21 04:34N 40°38' W 074°10'0 0.2
2014-Oct-21 03:33N 40°38' W 074°10'0 0.0
2014-Oct-21 02:34N 40°38' W 074°10'0 0.0
2014-Oct-21 01:33N 40°38' W 074°10'0 0.0
2014-Oct-21 00:34N 40°38' W 074°10'1 0.5
2014-Oct-20 23:32N 40°38' W 074°09'3 3.3
2014-Oct-20 22:33N 40°42' W 074°08'1 0.8
2014-Oct-20 21:30N 40°41' W 074°08'3 3.0
2014-Oct-20 20:34N 40°38' W 074°10'0 0.0
2014-Oct-20 19:34N 40°38' W 074°10'0 0.0
2014-Oct-20 18:34N 40°38' W 074°10'0 0.0
2014-Oct-20 17:34N 40°38' W 074°10'0 0.0
2014-Oct-20 16:34N 40°38' W 074°10'2 0.4
2014-Oct-20 12:34N 40°38' W 074°12'7 7.3
2014-Oct-20 11:33N 40°41' W 074°03'7 7.0
2014-Oct-20 10:34N 40°47' W 073°60'23 7.7
2014-Oct-20 07:31N 41°10' W 073°55'23 0.6
2014-Oct-18 15:34N 40°48' W 073°59'5 4.9
2014-Oct-18 14:33N 40°43' W 074°01'5 4.6
2014-Oct-18 13:31N 40°39' W 074°05'4 1.2
2014-Oct-18 10:33N 40°38' W 074°10'2 2.1
2014-Oct-18 09:34N 40°40' W 074°08'2 2.0
2014-Oct-18 08:32N 40°38' W 074°10'0 0.3
2014-Oct-18 07:34N 40°38' W 074°10'0 0.0
2014-Oct-18 06:33N 40°38' W 074°10'0 0.0
2014-Oct-18 05:33N 40°38' W 074°10'0 0.0
2014-Oct-18 04:23N 40°38' W 074°10'0 0.0
2014-Oct-18 03:34N 40°38' W 074°10'0 0.0
2014-Oct-18 02:33N 40°38' W 074°10'2 0.9
2014-Oct-18 00:33N 40°38' W 074°12'7 7.0
2014-Oct-17 23:33N 40°40' W 074°03'8 7.8
2014-Oct-17 22:33N 40°47' W 073°60'4 0.1
2014-Oct-16 03:31N 40°51' W 073°57'6 5.8
2014-Oct-16 02:34N 40°46' W 074°01'6 5.9
2014-Oct-16 01:33N 40°40' W 074°03'6 6.3
2014-Oct-16 00:33N 40°39' W 074°11'6 5.7
2014-Oct-15 23:33N 40°33' W 074°14'0 0.2
2014-Oct-15 21:33N 40°33' W 074°14'6 6.1
2014-Oct-15 20:33N 40°39' W 074°10'0 0.1
2014-Oct-15 19:34N 40°38' W 074°10'0 0.0
2014-Oct-15 18:33N 40°38' W 074°10'0 0.0
2014-Oct-15 17:32N 40°38' W 074°10'0 0.0
2014-Oct-15 16:34N 40°38' W 074°10'0 0.0
2014-Oct-15 15:33N 40°38' W 074°10'0 0.0
2014-Oct-15 14:33N 40°38' W 074°10'0 0.0
2014-Oct-15 13:32N 40°38' W 074°10'0 0.0
2014-Oct-15 12:33N 40°38' W 074°10'0 0.0
2014-Oct-15 11:33N 40°38' W 074°10'0 0.0
2014-Oct-15 10:33N 40°38' W 074°10'0 0.0
2014-Oct-15 09:32N 40°38' W 074°10'0 0.0
2014-Oct-15 08:33N 40°38' W 074°10'4 4.2
2014-Oct-15 07:33N 40°35' W 074°13'2 2.1
2014-Oct-15 06:33N 40°33' W 074°14'0 0.0
2014-Oct-15 05:33N 40°33' W 074°14'1 1.4
2014-Oct-15 04:33N 40°32' W 074°15'4 3.9
2014-Oct-15 03:31N 40°36' W 074°12'5 5.7
2014-Oct-15 02:33N 40°39' W 074°07'7 7.2
2014-Oct-15 01:33N 40°45' W 074°01'9 9.3
2014-Oct-15 00:33N 40°53' W 073°56'10 8.6
2014-Oct-14 23:24N 41°03' W 073°53'4 4.4
2014-Oct-14 22:32N 41°07' W 073°53'7 7.3
2014-Oct-14 21:33N 41°13' W 073°57'26 1.0
2014-Oct-13 20:13N 40°48' W 073°59'5 7.2
2014-Oct-13 19:31N 40°42' W 073°59'1 0.8
2014-Oct-13 18:33N 40°42' W 073°58'3 2.5
2014-Oct-13 17:33N 40°45' W 073°58'3 3.0
2014-Oct-13 16:33N 40°47' W 073°55'2 2.3
2014-Oct-13 15:33N 40°48' W 073°53'4 3.6
2014-Oct-13 14:33N 40°48' W 073°48'0 0.1
2014-Oct-13 13:31N 40°48' W 073°48'4 3.7
2014-Oct-13 12:33N 40°48' W 073°53'9 8.8
2014-Oct-13 11:34N 40°41' W 074°00'3 2.7
2014-Oct-13 10:23N 40°40' W 074°04'0 0.0
2014-Oct-13 09:33N 40°40' W 074°04'0 0.0
2014-Oct-13 08:29N 40°40' W 074°04'1 1.1
2014-Oct-13 07:33N 40°40' W 074°03'5 5.4
2014-Oct-13 06:33N 40°44' W 073°58'5 5.4
2014-Oct-13 05:34N 40°48' W 073°54'0 0.0
2014-Oct-13 04:21N 40°48' W 073°54'6 8.0
2014-Oct-13 03:33N 40°43' W 073°58'5 5.2
2014-Oct-13 02:33N 40°40' W 074°04'0 0.2
2014-Oct-13 01:34N 40°40' W 074°04'  
Track history (hours):
 
Tides and Currents Weather Stations Pressure Air Temp Water Temp Dewpoint Dewpoint Depression Visibility Wind Speed Wind Dir Waves Ship Positions

Resolute

Owner: Providence Steamboat Co., PROVIDENCE, RI. More information available from US FCC via Universal Licensing System and Coast Guard Vessel Documentation Center.

Last reported at 2014-Oct-23 00:33 UTC. Time now 2014-Oct-23 01:33 UTC.
Position N 40°38' W 074°10'.

Length 30 m; draft 4 m.

Type: Tug. MMSI: 367091630.

Date/timePositionNaut miles runAvg speedWind from/ knotsBaromVisibWave heightAir tempDewpointWater temp
2014-Oct-23 00:33N 40°38' W 074°10'0 0.0
2014-Oct-22 23:33N 40°38' W 074°10'0 0.0
2014-Oct-22 22:33N 40°38' W 074°10'2 1.7
2014-Oct-22 21:33N 40°38' W 074°12'2 2.4
2014-Oct-22 20:33N 40°39' W 074°09'5 4.9
2014-Oct-22 19:34N 40°40' W 074°03'2 2.2
2014-Oct-22 18:34N 40°38' W 074°04'1 0.6
2014-Oct-22 17:34N 40°39' W 074°03'1 1.5
2014-Oct-22 16:34N 40°39' W 074°05'4 3.7
2014-Oct-22 15:34N 40°38' W 074°10'5 4.9
2014-Oct-22 14:33N 40°38' W 074°03'5 4.8
2014-Oct-22 13:34N 40°38' W 074°10'4 4.3
2014-Oct-22 12:34N 40°40' W 074°04'0 0.4
2014-Oct-22 11:34N 40°40' W 074°04'1 1.2
2014-Oct-22 10:33N 40°39' W 074°05'0 0.1
2014-Oct-22 09:34N 40°39' W 074°05'2 2.3
2014-Oct-22 08:34N 40°40' W 074°03'5 4.3
2014-Oct-22 07:29N 40°40' W 074°09'0 0.0
2014-Oct-22 06:34N 40°40' W 074°09'0 0.0
2014-Oct-22 05:25N 40°40' W 074°09'0 0.0
2014-Oct-22 04:30N 40°40' W 074°09'1 1.4
2014-Oct-22 03:34N 40°38' W 074°10'0 0.0
2014-Oct-22 02:34N 40°38' W 074°10'0 0.0
2014-Oct-22 01:34N 40°38' W 074°10'3 0.3
2014-Oct-21 16:23N 40°36' W 074°12'3 3.6
2014-Oct-21 15:34N 40°38' W 074°10'0 0.0
2014-Oct-21 14:32N 40°38' W 074°10'0 0.0
2014-Oct-21 13:34N 40°38' W 074°10'2 1.7
2014-Oct-21 12:34N 40°40' W 074°08'1 0.8
2014-Oct-21 11:34N 40°41' W 074°09'2 2.4
2014-Oct-21 10:33N 40°38' W 074°10'0 0.0
2014-Oct-21 09:34N 40°38' W 074°10'1 1.1
2014-Oct-21 08:33N 40°39' W 074°08'2 1.8
2014-Oct-21 07:34N 40°40' W 074°08'0 0.1
2014-Oct-21 06:33N 40°40' W 074°08'1 0.6
2014-Oct-21 05:33N 40°40' W 074°08'2 1.7
2014-Oct-21 04:34N 40°38' W 074°10'0 0.2
2014-Oct-21 03:33N 40°38' W 074°10'0 0.0
2014-Oct-21 02:34N 40°38' W 074°10'0 0.0
2014-Oct-21 01:33N 40°38' W 074°10'0 0.0
2014-Oct-21 00:34N 40°38' W 074°10'1 0.5
2014-Oct-20 23:32N 40°38' W 074°09'3 3.3
2014-Oct-20 22:33N 40°42' W 074°08'1 0.8
2014-Oct-20 21:30N 40°41' W 074°08'3 3.0
2014-Oct-20 20:34N 40°38' W 074°10'0 0.0
2014-Oct-20 19:34N 40°38' W 074°10'0 0.0
2014-Oct-20 18:34N 40°38' W 074°10'0 0.0
2014-Oct-20 17:34N 40°38' W 074°10'0 0.0
2014-Oct-20 16:34N 40°38' W 074°10'2 0.4
2014-Oct-20 12:34N 40°38' W 074°12'7 7.3
2014-Oct-20 11:33N 40°41' W 074°03'7 7.0
2014-Oct-20 10:34N 40°47' W 073°60'23 7.7
2014-Oct-20 07:31N 41°10' W 073°55'23 0.6
2014-Oct-18 15:34N 40°48' W 073°59'5 4.9
2014-Oct-18 14:33N 40°43' W 074°01'5 4.6
2014-Oct-18 13:31N 40°39' W 074°05'4 1.2
2014-Oct-18 10:33N 40°38' W 074°10'2 2.1
2014-Oct-18 09:34N 40°40' W 074°08'2 2.0
2014-Oct-18 08:32N 40°38' W 074°10'0 0.3
2014-Oct-18 07:34N 40°38' W 074°10'0 0.0
2014-Oct-18 06:33N 40°38' W 074°10'0 0.0
2014-Oct-18 05:33N 40°38' W 074°10'0 0.0
2014-Oct-18 04:23N 40°38' W 074°10'0 0.0
2014-Oct-18 03:34N 40°38' W 074°10'0 0.0
2014-Oct-18 02:33N 40°38' W 074°10'2 0.9
2014-Oct-18 00:33N 40°38' W 074°12'7 7.0
2014-Oct-17 23:33N 40°40' W 074°03'8 7.8
2014-Oct-17 22:33N 40°47' W 073°60'4 0.1
2014-Oct-16 03:31N 40°51' W 073°57'6 5.8
2014-Oct-16 02:34N 40°46' W 074°01'6 5.9
2014-Oct-16 01:33N 40°40' W 074°03'6 6.3
2014-Oct-16 00:33N 40°39' W 074°11'6 5.7
2014-Oct-15 23:33N 40°33' W 074°14'0 0.2
2014-Oct-15 21:33N 40°33' W 074°14'6 6.1
2014-Oct-15 20:33N 40°39' W 074°10'0 0.1
2014-Oct-15 19:34N 40°38' W 074°10'0 0.0
2014-Oct-15 18:33N 40°38' W 074°10'0 0.0
2014-Oct-15 17:32N 40°38' W 074°10'0 0.0
2014-Oct-15 16:34N 40°38' W 074°10'0 0.0
2014-Oct-15 15:33N 40°38' W 074°10'0 0.0
2014-Oct-15 14:33N 40°38' W 074°10'0 0.0
2014-Oct-15 13:32N 40°38' W 074°10'0 0.0
2014-Oct-15 12:33N 40°38' W 074°10'0 0.0
2014-Oct-15 11:33N 40°38' W 074°10'0 0.0
2014-Oct-15 10:33N 40°38' W 074°10'0 0.0
2014-Oct-15 09:32N 40°38' W 074°10'0 0.0
2014-Oct-15 08:33N 40°38' W 074°10'4 4.2
2014-Oct-15 07:33N 40°35' W 074°13'2 2.1
2014-Oct-15 06:33N 40°33' W 074°14'0 0.0
2014-Oct-15 05:33N 40°33' W 074°14'1 1.4
2014-Oct-15 04:33N 40°32' W 074°15'4 3.9
2014-Oct-15 03:31N 40°36' W 074°12'5 5.7
2014-Oct-15 02:33N 40°39' W 074°07'7 7.2
2014-Oct-15 01:33N 40°45' W 074°01'9 9.3
2014-Oct-15 00:33N 40°53' W 073°56'10 8.6
2014-Oct-14 23:24N 41°03' W 073°53'4 4.4
2014-Oct-14 22:32N 41°07' W 073°53'7 7.3
2014-Oct-14 21:33N 41°13' W 073°57'26 1.0
2014-Oct-13 20:13N 40°48' W 073°59'5 7.2
2014-Oct-13 19:31N 40°42' W 073°59'1 0.8
2014-Oct-13 18:33N 40°42' W 073°58'3 2.5
2014-Oct-13 17:33N 40°45' W 073°58'3 3.0
2014-Oct-13 16:33N 40°47' W 073°55'2 2.3
2014-Oct-13 15:33N 40°48' W 073°53'4 3.6
2014-Oct-13 14:33N 40°48' W 073°48'0 0.1
2014-Oct-13 13:31N 40°48' W 073°48'4 3.7
2014-Oct-13 12:33N 40°48' W 073°53'9 8.8
2014-Oct-13 11:34N 40°41' W 074°00'3 2.7
2014-Oct-13 10:23N 40°40' W 074°04'0 0.0
2014-Oct-13 09:33N 40°40' W 074°04'0 0.0
2014-Oct-13 08:29N 40°40' W 074°04'1 1.1
2014-Oct-13 07:33N 40°40' W 074°03'5 5.4
2014-Oct-13 06:33N 40°44' W 073°58'5 5.4
2014-Oct-13 05:34N 40°48' W 073°54'0 0.0
2014-Oct-13 04:21N 40°48' W 073°54'6 8.0
2014-Oct-13 03:33N 40°43' W 073°58'5 5.2
2014-Oct-13 02:33N 40°40' W 074°04'0 0.2
2014-Oct-13 01:34N 40°40' W 074°04'  

Dump ship's entire track history